createdAt,value
2023-04-24T00:01:20.943Z,0.55
2023-04-24T00:11:23.034Z,0.10
2023-04-24T00:21:26.593Z,1.20
2023-04-24T00:31:28.846Z,0.50
2023-04-24T00:41:32.277Z,0.80
2023-04-24T00:51:35.658Z,0.40
2023-04-24T01:01:38.107Z,0.43
2023-04-24T01:11:41.907Z,0.50
2023-04-24T01:21:44.298Z,1.27
2023-04-24T01:31:46.756Z,0.67
2023-04-24T01:41:50.578Z,1.53
2023-04-24T01:51:54.892Z,1.03
2023-04-24T02:01:57.025Z,0.90
2023-04-24T02:11:59.132Z,0.93
2023-04-24T02:22:01.268Z,0.83
2023-04-24T02:32:03.685Z,2.17
2023-04-24T02:42:06.356Z,2.83
2023-04-24T02:52:08.580Z,8.53
2023-04-24T03:02:10.729Z,4.55
2023-04-24T03:12:12.920Z,7.50
2023-04-24T03:22:15.322Z,7.07
2023-04-24T03:32:18.198Z,7.17
2023-04-24T03:42:22.627Z,6.37
2023-04-24T03:52:28.623Z,9.40
2023-04-24T04:02:31.248Z,9.97
2023-04-24T04:12:34.217Z,9.73
2023-04-24T04:22:37.544Z,7.77
2023-04-24T04:32:42.467Z,9.17
2023-04-24T04:42:46.988Z,10.00
2023-04-24T04:52:49.922Z,8.75
2023-04-24T05:03:06.110Z,10.80
2023-04-24T05:13:19.102Z,13.00
2023-04-24T05:23:23.598Z,9.97
2023-04-24T05:33:28.645Z,8.40
2023-04-24T05:43:30.852Z,8.67
2023-04-24T05:53:33.005Z,7.77
2023-04-24T06:03:35.882Z,7.20
2023-04-24T06:13:39.673Z,7.43
2023-04-24T06:24:05.512Z,7.97
2023-04-24T06:34:07.782Z,6.20
2023-04-24T06:44:09.895Z,4.30
2023-04-24T06:54:12.033Z,6.07
2023-04-24T07:04:14.514Z,6.13
2023-04-24T07:14:17.014Z,3.97
2023-04-24T07:24:21.038Z,4.33
2023-04-24T07:34:24.424Z,4.10
2023-04-24T07:44:26.961Z,4.33
2023-04-24T07:54:29.759Z,2.80
2023-04-24T08:04:31.941Z,2.07
2023-04-24T08:14:34.081Z,1.63
2023-04-24T08:24:36.147Z,0.83
2023-04-24T08:34:38.703Z,0.20
2023-04-24T08:44:41.005Z,0.20
2023-04-24T08:54:46.398Z,0.53
2023-04-24T09:04:49.078Z,0.30
2023-04-24T09:14:51.417Z,1.23
2023-04-24T09:25:13.946Z,1.00
2023-04-24T09:35:16.743Z,2.17
2023-04-24T09:45:19.121Z,0.70
2023-04-24T09:55:21.744Z,6.13
2023-04-24T10:05:25.826Z,0.70
2023-04-24T10:15:28.361Z,1.30
2023-04-24T10:25:32.513Z,3.53
2023-04-24T10:35:42.828Z,1.50
2023-04-24T10:46:02.011Z,3.20
2023-04-24T10:56:06.656Z,2.60
2023-04-24T11:06:09.875Z,2.67
2023-04-24T11:16:24.272Z,6.83
2023-04-24T11:26:33.179Z,6.27
2023-04-24T11:36:37.056Z,10.17
2023-04-24T11:46:41.496Z,10.60
2023-04-24T11:56:48.945Z,12.07
2023-04-24T12:07:04.651Z,14.83
2023-04-24T12:17:06.836Z,9.90
2023-04-24T12:27:20.739Z,8.17
2023-04-24T12:37:27.125Z,4.40
2023-04-24T12:47:29.921Z,7.40
2023-04-24T12:57:32.103Z,9.53
2023-04-24T13:07:34.350Z,4.93
2023-04-24T13:17:36.435Z,7.10
2023-04-24T13:27:41.642Z,4.63
2023-04-24T13:37:43.730Z,3.67
2023-04-24T13:47:47.238Z,3.25
2023-04-24T13:57:49.964Z,4.80
2023-04-24T14:07:52.198Z,1.40
2023-04-24T14:17:54.394Z,3.80
2023-04-24T14:27:56.686Z,3.00
2023-04-24T14:37:58.833Z,1.97
2023-04-24T14:48:00.970Z,2.53
2023-04-24T14:58:03.428Z,2.23
2023-04-24T15:08:05.508Z,2.42
2023-04-24T15:18:09.295Z,3.97
2023-04-24T15:28:11.630Z,4.60
2023-04-24T15:38:14.349Z,1.90
2023-04-24T15:48:16.781Z,1.73
2023-04-24T15:58:21.414Z,4.47
2023-04-24T16:08:23.503Z,2.50
2023-04-24T16:18:25.662Z,2.60
2023-04-24T16:28:27.827Z,3.50
2023-04-24T16:38:29.905Z,0.80
2023-04-24T16:48:33.259Z,6.63
2023-04-24T16:58:35.790Z,2.33
2023-04-24T17:08:38.098Z,0.93
2023-04-24T17:18:40.513Z,3.73
2023-04-24T17:28:42.605Z,4.23
2023-04-24T17:38:44.729Z,2.93
2023-04-24T17:48:48.304Z,1.70
2023-04-24T17:58:52.334Z,2.93
2023-04-24T18:08:54.573Z,3.05
2023-04-24T18:18:57.692Z,3.90
2023-04-24T18:28:59.900Z,5.25
2023-04-24T18:39:02.701Z,2.97
2023-04-24T18:49:05.011Z,3.57
2023-04-24T18:59:07.267Z,4.17
2023-04-24T19:09:09.383Z,5.90
2023-04-24T19:19:11.421Z,5.60
2023-04-24T19:29:13.580Z,4.67
2023-04-24T19:39:16.064Z,11.05
2023-04-24T19:49:18.722Z,8.37
2023-04-24T19:59:20.992Z,2.77
2023-04-24T20:09:23.173Z,5.37
2023-04-24T20:19:25.287Z,6.83
2023-04-24T20:29:27.713Z,4.53
2023-04-24T20:39:29.930Z,5.23
2023-04-24T20:49:32.110Z,5.70
2023-04-24T20:59:34.790Z,4.57
2023-04-24T21:09:36.886Z,4.63
2023-04-24T21:19:38.940Z,7.00
2023-04-24T21:29:41.136Z,4.33
2023-04-24T21:39:43.341Z,5.40
2023-04-24T21:49:45.517Z,6.67
2023-04-24T21:59:47.868Z,5.60
2023-04-24T22:09:49.922Z,8.47
2023-04-24T22:19:52.189Z,10.37
2023-04-24T22:29:54.317Z,9.40
2023-04-24T22:39:56.420Z,9.73
2023-04-24T22:49:59.398Z,8.43
2023-04-24T23:00:02.923Z,11.63
2023-04-24T23:10:05.954Z,8.00
2023-04-24T23:20:12.602Z,9.73
2023-04-24T23:30:14.722Z,8.63
2023-04-24T23:40:16.959Z,9.47
2023-04-24T23:50:19.039Z,10.97
